sensor_id;sensor_type;location;lat;lon;timestamp;P1;durP1;ratioP1;P2;durP2;ratioP2
56943;SDS011;42848;42.524;12.052;2024-01-27T00:00:08;15.90;;;9.82;;
56943;SDS011;42848;42.524;12.052;2024-01-27T00:02:34;15.85;;;9.43;;
56943;SDS011;42848;42.524;12.052;2024-01-27T00:05:00;15.35;;;9.35;;
56943;SDS011;42848;42.524;12.052;2024-01-27T00:07:26;14.02;;;9.10;;
56943;SDS011;42848;42.524;12.052;2024-01-27T00:09:53;17.65;;;9.07;;
56943;SDS011;42848;42.524;12.052;2024-01-27T00:12:24;15.05;;;9.50;;
56943;SDS011;42848;42.524;12.052;2024-01-27T00:14:50;15.20;;;9.68;;
56943;SDS011;42848;42.524;12.052;2024-01-27T00:17:15;16.58;;;9.63;;
56943;SDS011;42848;42.524;12.052;2024-01-27T00:19:41;17.75;;;9.20;;
56943;SDS011;42848;42.524;12.052;2024-01-27T00:22:07;15.75;;;9.10;;
56943;SDS011;42848;42.524;12.052;2024-01-27T00:24:33;14.43;;;8.70;;
56943;SDS011;42848;42.524;12.052;2024-01-27T00:26:59;15.95;;;9.13;;
56943;SDS011;42848;42.524;12.052;2024-01-27T00:29:25;17.60;;;9.63;;
56943;SDS011;42848;42.524;12.052;2024-01-27T00:31:51;15.35;;;9.25;;
56943;SDS011;42848;42.524;12.052;2024-01-27T00:34:16;15.85;;;9.30;;
56943;SDS011;42848;42.524;12.052;2024-01-27T00:36:42;13.15;;;8.93;;
56943;SDS011;42848;42.524;12.052;2024-01-27T00:39:17;12.95;;;8.35;;
56943;SDS011;42848;42.524;12.052;2024-01-27T00:41:43;14.43;;;8.90;;
56943;SDS011;42848;42.524;12.052;2024-01-27T00:44:09;14.23;;;8.35;;
56943;SDS011;42848;42.524;12.052;2024-01-27T00:46:38;13.25;;;8.63;;
56943;SDS011;42848;42.524;12.052;2024-01-27T00:49:04;14.40;;;9.15;;
56943;SDS011;42848;42.524;12.052;2024-01-27T00:51:29;13.10;;;8.00;;
56943;SDS011;42848;42.524;12.052;2024-01-27T00:53:55;13.82;;;8.43;;
56943;SDS011;42848;42.524;12.052;2024-01-27T00:56:21;14.05;;;8.30;;
56943;SDS011;42848;42.524;12.052;2024-01-27T00:58:47;12.68;;;8.10;;
56943;SDS011;42848;42.524;12.052;2024-01-27T01:01:12;13.00;;;8.15;;
56943;SDS011;42848;42.524;12.052;2024-01-27T01:03:38;14.00;;;7.85;;
56943;SDS011;42848;42.524;12.052;2024-01-27T01:06:03;13.40;;;8.25;;
56943;SDS011;42848;42.524;12.052;2024-01-27T01:08:29;11.45;;;7.25;;
56943;SDS011;42848;42.524;12.052;2024-01-27T01:10:54;14.07;;;7.18;;
56943;SDS011;42848;42.524;12.052;2024-01-27T01:13:20;11.38;;;6.90;;
56943;SDS011;42848;42.524;12.052;2024-01-27T01:15:49;12.02;;;7.05;;
56943;SDS011;42848;42.524;12.052;2024-01-27T01:18:14;10.85;;;6.88;;
56943;SDS011;42848;42.524;12.052;2024-01-27T01:20:40;11.65;;;7.18;;
56943;SDS011;42848;42.524;12.052;2024-01-27T01:23:05;11.40;;;6.70;;
56943;SDS011;42848;42.524;12.052;2024-01-27T01:25:31;12.20;;;6.97;;
56943;SDS011;42848;42.524;12.052;2024-01-27T01:27:57;11.98;;;6.95;;
56943;SDS011;42848;42.524;12.052;2024-01-27T01:30:22;12.00;;;7.20;;
56943;SDS011;42848;42.524;12.052;2024-01-27T01:32:48;12.55;;;6.78;;
56943;SDS011;42848;42.524;12.052;2024-01-27T01:35:14;11.38;;;7.03;;
56943;SDS011;42848;42.524;12.052;2024-01-27T01:37:39;10.70;;;6.32;;
56943;SDS011;42848;42.524;12.052;2024-01-27T01:40:06;13.38;;;6.85;;
56943;SDS011;42848;42.524;12.052;2024-01-27T01:42:32;12.15;;;6.53;;
56943;SDS011;42848;42.524;12.052;2024-01-27T01:44:57;10.82;;;6.40;;
56943;SDS011;42848;42.524;12.052;2024-01-27T01:47:23;11.70;;;6.68;;
56943;SDS011;42848;42.524;12.052;2024-01-27T01:49:49;11.93;;;6.97;;
56943;SDS011;42848;42.524;12.052;2024-01-27T01:52:15;12.52;;;6.78;;
56943;SDS011;42848;42.524;12.052;2024-01-27T01:54:51;12.15;;;7.03;;
56943;SDS011;42848;42.524;12.052;2024-01-27T01:57:17;11.98;;;7.20;;
56943;SDS011;42848;42.524;12.052;2024-01-27T01:59:42;11.05;;;7.07;;
56943;SDS011;42848;42.524;12.052;2024-01-27T02:02:09;11.95;;;6.57;;
56943;SDS011;42848;42.524;12.052;2024-01-27T02:04:41;11.88;;;6.80;;
56943;SDS011;42848;42.524;12.052;2024-01-27T02:07:08;11.52;;;6.80;;
56943;SDS011;42848;42.524;12.052;2024-01-27T02:09:34;11.38;;;6.80;;
56943;SDS011;42848;42.524;12.052;2024-01-27T02:12:00;12.00;;;7.43;;
56943;SDS011;42848;42.524;12.052;2024-01-27T02:14:26;15.05;;;7.88;;
56943;SDS011;42848;42.524;12.052;2024-01-27T02:16:53;13.73;;;7.38;;
56943;SDS011;42848;42.524;12.052;2024-01-27T02:19:19;13.38;;;7.90;;
56943;SDS011;42848;42.524;12.052;2024-01-27T02:21:45;15.73;;;8.70;;
56943;SDS011;42848;42.524;12.052;2024-01-27T02:24:11;14.25;;;8.50;;
56943;SDS011;42848;42.524;12.052;2024-01-27T02:26:36;14.05;;;8.57;;
56943;SDS011;42848;42.524;12.052;2024-01-27T02:29:02;16.17;;;7.72;;
56943;SDS011;42848;42.524;12.052;2024-01-27T02:31:28;14.77;;;8.43;;
56943;SDS011;42848;42.524;12.052;2024-01-27T02:33:53;14.07;;;8.60;;
56943;SDS011;42848;42.524;12.052;2024-01-27T02:36:19;15.95;;;8.45;;
56943;SDS011;42848;42.524;12.052;2024-01-27T02:38:45;15.10;;;8.60;;
56943;SDS011;42848;42.524;12.052;2024-01-27T02:41:10;15.52;;;8.90;;
56943;SDS011;42848;42.524;12.052;2024-01-27T02:43:37;16.15;;;8.85;;
56943;SDS011;42848;42.524;12.052;2024-01-27T02:46:05;13.80;;;8.43;;
56943;SDS011;42848;42.524;12.052;2024-01-27T02:48:33;14.50;;;8.65;;
56943;SDS011;42848;42.524;12.052;2024-01-27T02:51:01;14.18;;;8.70;;
56943;SDS011;42848;42.524;12.052;2024-01-27T02:53:28;14.15;;;9.38;;
56943;SDS011;42848;42.524;12.052;2024-01-27T02:55:53;14.52;;;8.55;;
56943;SDS011;42848;42.524;12.052;2024-01-27T02:58:19;17.02;;;9.25;;
56943;SDS011;42848;42.524;12.052;2024-01-27T03:00:44;15.30;;;9.10;;
56943;SDS011;42848;42.524;12.052;2024-01-27T03:03:10;12.65;;;8.65;;
56943;SDS011;42848;42.524;12.052;2024-01-27T03:05:35;15.23;;;8.93;;
56943;SDS011;42848;42.524;12.052;2024-01-27T03:08:01;15.52;;;8.60;;
56943;SDS011;42848;42.524;12.052;2024-01-27T03:10:26;14.48;;;8.88;;
56943;SDS011;42848;42.524;12.052;2024-01-27T03:12:52;15.98;;;8.95;;
56943;SDS011;42848;42.524;12.052;2024-01-27T03:15:18;14.20;;;8.10;;
56943;SDS011;42848;42.524;12.052;2024-01-27T03:17:43;14.27;;;8.90;;
56943;SDS011;42848;42.524;12.052;2024-01-27T03:20:09;14.10;;;8.15;;
56943;SDS011;42848;42.524;12.052;2024-01-27T03:22:35;16.67;;;9.20;;
56943;SDS011;42848;42.524;12.052;2024-01-27T03:25:00;13.65;;;8.48;;
56943;SDS011;42848;42.524;12.052;2024-01-27T03:27:26;14.48;;;8.82;;
56943;SDS011;42848;42.524;12.052;2024-01-27T03:29:51;15.27;;;8.80;;
56943;SDS011;42848;42.524;12.052;2024-01-27T03:32:17;15.60;;;9.45;;
56943;SDS011;42848;42.524;12.052;2024-01-27T03:34:46;15.57;;;9.25;;
56943;SDS011;42848;42.524;12.052;2024-01-27T03:37:11;14.43;;;8.60;;
56943;SDS011;42848;42.524;12.052;2024-01-27T03:39:37;13.98;;;8.73;;
56943;SDS011;42848;42.524;12.052;2024-01-27T03:42:02;14.48;;;8.95;;
56943;SDS011;42848;42.524;12.052;2024-01-27T03:44:28;14.85;;;8.73;;
56943;SDS011;42848;42.524;12.052;2024-01-27T03:46:54;14.68;;;8.43;;
56943;SDS011;42848;42.524;12.052;2024-01-27T03:49:19;15.90;;;8.95;;
56943;SDS011;42848;42.524;12.052;2024-01-27T03:51:45;15.30;;;8.73;;
56943;SDS011;42848;42.524;12.052;2024-01-27T03:54:10;14.27;;;8.80;;
56943;SDS011;42848;42.524;12.052;2024-01-27T03:56:36;15.20;;;8.05;;
56943;SDS011;42848;42.524;12.052;2024-01-27T03:59:01;16.15;;;8.32;;
56943;SDS011;42848;42.524;12.052;2024-01-27T04:01:29;14.65;;;8.75;;
56943;SDS011;42848;42.524;12.052;2024-01-27T04:03:54;13.75;;;8.52;;
56943;SDS011;42848;42.524;12.052;2024-01-27T04:06:20;15.02;;;8.13;;
56943;SDS011;42848;42.524;12.052;2024-01-27T04:08:45;14.77;;;8.30;;
56943;SDS011;42848;42.524;12.052;2024-01-27T04:11:20;12.98;;;8.05;;
56943;SDS011;42848;42.524;12.052;2024-01-27T04:13:48;12.40;;;8.15;;
56943;SDS011;42848;42.524;12.052;2024-01-27T04:29:42;13.60;;;8.32;;
56943;SDS011;42848;42.524;12.052;2024-01-27T04:32:08;14.38;;;8.45;;
56943;SDS011;42848;42.524;12.052;2024-01-27T04:34:33;16.38;;;8.57;;
56943;SDS011;42848;42.524;12.052;2024-01-27T04:36:59;12.75;;;7.90;;
56943;SDS011;42848;42.524;12.052;2024-01-27T04:39:24;14.57;;;8.82;;
56943;SDS011;42848;42.524;12.052;2024-01-27T04:41:50;14.35;;;8.15;;
56943;SDS011;42848;42.524;12.052;2024-01-27T04:44:16;14.85;;;8.82;;
56943;SDS011;42848;42.524;12.052;2024-01-27T04:46:41;14.32;;;8.20;;
56943;SDS011;42848;42.524;12.052;2024-01-27T04:49:07;15.77;;;8.82;;
56943;SDS011;42848;42.524;12.052;2024-01-27T04:51:33;14.50;;;8.50;;
56943;SDS011;42848;42.524;12.052;2024-01-27T04:53:58;15.15;;;8.43;;
56943;SDS011;42848;42.524;12.052;2024-01-27T04:56:24;14.18;;;8.65;;
56943;SDS011;42848;42.524;12.052;2024-01-27T04:58:49;14.98;;;8.57;;
56943;SDS011;42848;42.524;12.052;2024-01-27T05:01:15;15.02;;;8.55;;
56943;SDS011;42848;42.524;12.052;2024-01-27T05:03:41;14.68;;;8.75;;
56943;SDS011;42848;42.524;12.052;2024-01-27T05:06:07;14.23;;;7.95;;
56943;SDS011;42848;42.524;12.052;2024-01-27T05:08:34;12.93;;;8.00;;
56943;SDS011;42848;42.524;12.052;2024-01-27T05:11:00;14.15;;;8.45;;
56943;SDS011;42848;42.524;12.052;2024-01-27T05:13:25;13.32;;;8.23;;
56943;SDS011;42848;42.524;12.052;2024-01-27T05:15:51;13.45;;;8.07;;
56943;SDS011;42848;42.524;12.052;2024-01-27T05:18:17;15.38;;;8.98;;
56943;SDS011;42848;42.524;12.052;2024-01-27T05:20:42;16.00;;;8.52;;
56943;SDS011;42848;42.524;12.052;2024-01-27T05:23:08;14.77;;;8.70;;
56943;SDS011;42848;42.524;12.052;2024-01-27T05:25:34;14.85;;;9.00;;
56943;SDS011;42848;42.524;12.052;2024-01-27T05:27:59;16.25;;;9.27;;
56943;SDS011;42848;42.524;12.052;2024-01-27T05:30:25;17.83;;;9.30;;
56943;SDS011;42848;42.524;12.052;2024-01-27T05:32:50;14.88;;;9.35;;
56943;SDS011;42848;42.524;12.052;2024-01-27T05:35:16;15.38;;;9.40;;
56943;SDS011;42848;42.524;12.052;2024-01-27T05:37:41;16.15;;;9.15;;
56943;SDS011;42848;42.524;12.052;2024-01-27T05:40:07;16.15;;;9.43;;
56943;SDS011;42848;42.524;12.052;2024-01-27T05:42:34;15.18;;;9.10;;
56943;SDS011;42848;42.524;12.052;2024-01-27T05:45:00;18.30;;;9.68;;
56943;SDS011;42848;42.524;12.052;2024-01-27T05:47:25;18.40;;;10.05;;
56943;SDS011;42848;42.524;12.052;2024-01-27T05:49:51;18.13;;;10.50;;
56943;SDS011;42848;42.524;12.052;2024-01-27T05:52:16;19.85;;;9.82;;
56943;SDS011;42848;42.524;12.052;2024-01-27T05:54:42;18.08;;;9.93;;
56943;SDS011;42848;42.524;12.052;2024-01-27T05:57:08;18.83;;;10.25;;
56943;SDS011;42848;42.524;12.052;2024-01-27T05:59:33;17.15;;;9.98;;
56943;SDS011;42848;42.524;12.052;2024-01-27T06:01:59;18.33;;;10.20;;
56943;SDS011;42848;42.524;12.052;2024-01-27T06:04:24;18.42;;;10.00;;
56943;SDS011;42848;42.524;12.052;2024-01-27T06:06:50;18.77;;;10.55;;
56943;SDS011;42848;42.524;12.052;2024-01-27T06:09:15;17.33;;;10.45;;
56943;SDS011;42848;42.524;12.052;2024-01-27T06:11:41;17.58;;;10.20;;
56943;SDS011;42848;42.524;12.052;2024-01-27T06:14:07;20.92;;;11.25;;
56943;SDS011;42848;42.524;12.052;2024-01-27T06:16:32;22.10;;;12.63;;
56943;SDS011;42848;42.524;12.052;2024-01-27T06:18:58;19.27;;;10.95;;
56943;SDS011;42848;42.524;12.052;2024-01-27T06:21:24;18.60;;;10.52;;
56943;SDS011;42848;42.524;12.052;2024-01-27T06:23:50;19.88;;;10.65;;
56943;SDS011;42848;42.524;12.052;2024-01-27T06:26:16;19.05;;;11.20;;
56943;SDS011;42848;42.524;12.052;2024-01-27T06:28:41;18.10;;;10.32;;
56943;SDS011;42848;42.524;12.052;2024-01-27T06:31:07;18.15;;;11.35;;
56943;SDS011;42848;42.524;12.052;2024-01-27T06:33:34;18.95;;;11.73;;
56943;SDS011;42848;42.524;12.052;2024-01-27T06:36:00;28.60;;;16.20;;
56943;SDS011;42848;42.524;12.052;2024-01-27T06:38:26;24.90;;;14.30;;
56943;SDS011;42848;42.524;12.052;2024-01-27T06:40:52;29.48;;;17.17;;
56943;SDS011;42848;42.524;12.052;2024-01-27T06:43:19;30.42;;;17.52;;
56943;SDS011;42848;42.524;12.052;2024-01-27T06:45:44;31.77;;;16.02;;
56943;SDS011;42848;42.524;12.052;2024-01-27T06:48:10;30.42;;;15.95;;
56943;SDS011;42848;42.524;12.052;2024-01-27T06:50:36;22.92;;;11.88;;
56943;SDS011;42848;42.524;12.052;2024-01-27T06:53:01;20.13;;;11.32;;
56943;SDS011;42848;42.524;12.052;2024-01-27T06:55:27;20.95;;;11.88;;
56943;SDS011;42848;42.524;12.052;2024-01-27T06:57:53;22.38;;;11.57;;
56943;SDS011;42848;42.524;12.052;2024-01-27T07:00:19;19.15;;;11.07;;
56943;SDS011;42848;42.524;12.052;2024-01-27T07:02:45;22.20;;;11.40;;
56943;SDS011;42848;42.524;12.052;2024-01-27T07:05:11;20.02;;;11.10;;
56943;SDS011;42848;42.524;12.052;2024-01-27T07:07:39;19.88;;;10.55;;
56943;SDS011;42848;42.524;12.052;2024-01-27T07:10:05;25.23;;;11.77;;
56943;SDS011;42848;42.524;12.052;2024-01-27T07:12:33;19.75;;;10.88;;
56943;SDS011;42848;42.524;12.052;2024-01-27T07:14:59;18.45;;;10.38;;
56943;SDS011;42848;42.524;12.052;2024-01-27T07:17:28;18.85;;;9.73;;
56943;SDS011;42848;42.524;12.052;2024-01-27T07:19:54;21.80;;;11.30;;
56943;SDS011;42848;42.524;12.052;2024-01-27T07:22:20;17.90;;;10.45;;
56943;SDS011;42848;42.524;12.052;2024-01-27T07:24:47;21.40;;;11.02;;
56943;SDS011;42848;42.524;12.052;2024-01-27T07:27:16;37.38;;;18.48;;
56943;SDS011;42848;42.524;12.052;2024-01-27T07:29:42;116.72;;;51.75;;
56943;SDS011;42848;42.524;12.052;2024-01-27T07:32:08;81.80;;;39.80;;
56943;SDS011;42848;42.524;12.052;2024-01-27T07:34:42;56.90;;;27.70;;
56943;SDS011;42848;42.524;12.052;2024-01-27T07:37:08;30.67;;;15.93;;
56943;SDS011;42848;42.524;12.052;2024-01-27T07:39:34;24.20;;;12.77;;
56943;SDS011;42848;42.524;12.052;2024-01-27T07:41:59;35.83;;;19.83;;
56943;SDS011;42848;42.524;12.052;2024-01-27T07:44:25;34.90;;;19.42;;
56943;SDS011;42848;42.524;12.052;2024-01-27T07:46:50;28.20;;;16.10;;
56943;SDS011;42848;42.524;12.052;2024-01-27T07:49:16;33.30;;;17.83;;
56943;SDS011;42848;42.524;12.052;2024-01-27T07:51:43;36.65;;;19.50;;
56943;SDS011;42848;42.524;12.052;2024-01-27T07:54:08;27.42;;;14.23;;
56943;SDS011;42848;42.524;12.052;2024-01-27T07:56:34;25.25;;;14.70;;
56943;SDS011;42848;42.524;12.052;2024-01-27T07:58:59;33.95;;;19.05;;
56943;SDS011;42848;42.524;12.052;2024-01-27T08:01:25;29.90;;;17.00;;
56943;SDS011;42848;42.524;12.052;2024-01-27T08:03:51;22.50;;;13.20;;
56943;SDS011;42848;42.524;12.052;2024-01-27T08:06:17;24.15;;;14.45;;
56943;SDS011;42848;42.524;12.052;2024-01-27T08:08:45;26.02;;;15.38;;
56943;SDS011;42848;42.524;12.052;2024-01-27T08:11:14;20.45;;;11.15;;
56943;SDS011;42848;42.524;12.052;2024-01-27T08:13:40;20.33;;;11.25;;
56943;SDS011;42848;42.524;12.052;2024-01-27T08:16:09;21.30;;;12.65;;
56943;SDS011;42848;42.524;12.052;2024-01-27T08:18:38;24.85;;;14.30;;
56943;SDS011;42848;42.524;12.052;2024-01-27T08:21:04;18.95;;;11.45;;
56943;SDS011;42848;42.524;12.052;2024-01-27T08:23:30;19.40;;;10.95;;
56943;SDS011;42848;42.524;12.052;2024-01-27T08:25:56;19.45;;;10.73;;
56943;SDS011;42848;42.524;12.052;2024-01-27T08:28:21;18.60;;;9.85;;
56943;SDS011;42848;42.524;12.052;2024-01-27T08:30:47;17.23;;;9.80;;
56943;SDS011;42848;42.524;12.052;2024-01-27T08:33:13;16.77;;;9.10;;
56943;SDS011;42848;42.524;12.052;2024-01-27T08:35:39;17.33;;;9.70;;
56943;SDS011;42848;42.524;12.052;2024-01-27T08:38:06;14.40;;;8.93;;
56943;SDS011;42848;42.524;12.052;2024-01-27T08:40:32;16.92;;;10.05;;
56943;SDS011;42848;42.524;12.052;2024-01-27T08:42:58;17.05;;;9.90;;
56943;SDS011;42848;42.524;12.052;2024-01-27T08:45:23;14.18;;;7.88;;
56943;SDS011;42848;42.524;12.052;2024-01-27T08:47:50;15.70;;;8.65;;
56943;SDS011;42848;42.524;12.052;2024-01-27T08:50:16;17.33;;;8.30;;
56943;SDS011;42848;42.524;12.052;2024-01-27T08:52:42;16.83;;;8.80;;
56943;SDS011;42848;42.524;12.052;2024-01-27T08:55:07;15.13;;;8.30;;
56943;SDS011;42848;42.524;12.052;2024-01-27T08:57:33;14.48;;;8.50;;
56943;SDS011;42848;42.524;12.052;2024-01-27T08:59:59;16.90;;;8.75;;
56943;SDS011;42848;42.524;12.052;2024-01-27T09:02:25;16.75;;;9.25;;
56943;SDS011;42848;42.524;12.052;2024-01-27T09:04:50;16.73;;;8.90;;
56943;SDS011;42848;42.524;12.052;2024-01-27T09:07:16;14.90;;;8.18;;
56943;SDS011;42848;42.524;12.052;2024-01-27T09:09:42;32.92;;;20.10;;
56943;SDS011;42848;42.524;12.052;2024-01-27T09:12:08;21.88;;;12.38;;
56943;SDS011;42848;42.524;12.052;2024-01-27T09:14:34;14.40;;;8.80;;
56943;SDS011;42848;42.524;12.052;2024-01-27T09:17:02;13.70;;;8.07;;
56943;SDS011;42848;42.524;12.052;2024-01-27T09:19:28;13.15;;;7.57;;
56943;SDS011;42848;42.524;12.052;2024-01-27T09:21:54;12.50;;;7.50;;
56943;SDS011;42848;42.524;12.052;2024-01-27T09:24:20;12.95;;;7.50;;
56943;SDS011;42848;42.524;12.052;2024-01-27T09:26:45;13.18;;;8.27;;
56943;SDS011;42848;42.524;12.052;2024-01-27T09:29:11;11.82;;;7.53;;
56943;SDS011;42848;42.524;12.052;2024-01-27T09:31:36;13.10;;;7.65;;
56943;SDS011;42848;42.524;12.052;2024-01-27T09:34:03;14.85;;;7.95;;
56943;SDS011;42848;42.524;12.052;2024-01-27T09:36:29;17.38;;;9.80;;
56943;SDS011;42848;42.524;12.052;2024-01-27T09:38:54;15.60;;;9.32;;
56943;SDS011;42848;42.524;12.052;2024-01-27T09:41:20;17.67;;;9.40;;
56943;SDS011;42848;42.524;12.052;2024-01-27T09:43:46;17.85;;;10.13;;
56943;SDS011;42848;42.524;12.052;2024-01-27T09:46:13;17.52;;;9.75;;
56943;SDS011;42848;42.524;12.052;2024-01-27T09:48:40;15.73;;;8.77;;
56943;SDS011;42848;42.524;12.052;2024-01-27T09:51:06;14.35;;;8.52;;
56943;SDS011;42848;42.524;12.052;2024-01-27T09:53:33;17.95;;;10.10;;
56943;SDS011;42848;42.524;12.052;2024-01-27T09:56:00;16.55;;;9.10;;
56943;SDS011;42848;42.524;12.052;2024-01-27T09:58:28;15.13;;;7.97;;
56943;SDS011;42848;42.524;12.052;2024-01-27T10:00:59;13.63;;;8.27;;
56943;SDS011;42848;42.524;12.052;2024-01-27T10:03:26;14.55;;;8.23;;
56943;SDS011;42848;42.524;12.052;2024-01-27T10:05:53;16.05;;;8.02;;
56943;SDS011;42848;42.524;12.052;2024-01-27T10:08:21;12.02;;;7.30;;
56943;SDS011;42848;42.524;12.052;2024-01-27T10:10:49;14.18;;;7.60;;
56943;SDS011;42848;42.524;12.052;2024-01-27T10:13:22;14.27;;;8.05;;
56943;SDS011;42848;42.524;12.052;2024-01-27T10:16:07;9.95;;;6.35;;
56943;SDS011;42848;42.524;12.052;2024-01-27T10:18:35;15.38;;;9.00;;
56943;SDS011;42848;42.524;12.052;2024-01-27T10:21:22;32.90;;;20.17;;
56943;SDS011;42848;42.524;12.052;2024-01-27T10:23:48;14.10;;;7.93;;
56943;SDS011;42848;42.524;12.052;2024-01-27T10:26:14;10.63;;;6.22;;
56943;SDS011;42848;42.524;12.052;2024-01-27T10:28:40;11.05;;;7.32;;
56943;SDS011;42848;42.524;12.052;2024-01-27T10:31:08;9.95;;;5.80;;
56943;SDS011;42848;42.524;12.052;2024-01-27T10:33:34;11.90;;;7.00;;
56943;SDS011;42848;42.524;12.052;2024-01-27T10:36:00;12.27;;;7.38;;
56943;SDS011;42848;42.524;12.052;2024-01-27T10:38:37;12.13;;;6.40;;
56943;SDS011;42848;42.524;12.052;2024-01-27T10:41:07;15.07;;;8.43;;
56943;SDS011;42848;42.524;12.052;2024-01-27T10:43:37;10.85;;;6.82;;
56943;SDS011;42848;42.524;12.052;2024-01-27T10:46:07;12.02;;;6.47;;
56943;SDS011;42848;42.524;12.052;2024-01-27T10:48:37;12.73;;;6.05;;
56943;SDS011;42848;42.524;12.052;2024-01-27T10:51:05;9.88;;;6.07;;
56943;SDS011;42848;42.524;12.052;2024-01-27T10:53:34;13.55;;;6.90;;
56943;SDS011;42848;42.524;12.052;2024-01-27T10:56:03;10.25;;;6.15;;
56943;SDS011;42848;42.524;12.052;2024-01-27T10:58:35;12.38;;;6.95;;
56943;SDS011;42848;42.524;12.052;2024-01-27T11:01:07;12.35;;;7.18;;
56943;SDS011;42848;42.524;12.052;2024-01-27T11:03:39;11.48;;;7.63;;
56943;SDS011;42848;42.524;12.052;2024-01-27T11:06:06;10.13;;;6.35;;
56943;SDS011;42848;42.524;12.052;2024-01-27T11:08:35;10.13;;;6.20;;
56943;SDS011;42848;42.524;12.052;2024-01-27T11:11:03;9.77;;;5.80;;
56943;SDS011;42848;42.524;12.052;2024-01-27T11:13:29;10.60;;;6.43;;
56943;SDS011;42848;42.524;12.052;2024-01-27T11:15:57;9.52;;;6.43;;
56943;SDS011;42848;42.524;12.052;2024-01-27T11:18:26;9.95;;;6.20;;
56943;SDS011;42848;42.524;12.052;2024-01-27T11:20:53;9.63;;;6.00;;
56943;SDS011;42848;42.524;12.052;2024-01-27T11:23:20;9.10;;;5.75;;
56943;SDS011;42848;42.524;12.052;2024-01-27T11:25:45;13.68;;;7.57;;
56943;SDS011;42848;42.524;12.052;2024-01-27T11:28:12;9.25;;;5.95;;
56943;SDS011;42848;42.524;12.052;2024-01-27T11:30:46;9.77;;;5.85;;
56943;SDS011;42848;42.524;12.052;2024-01-27T11:33:12;10.23;;;6.40;;
56943;SDS011;42848;42.524;12.052;2024-01-27T11:35:37;9.45;;;5.82;;
56943;SDS011;42848;42.524;12.052;2024-01-27T11:38:03;10.05;;;5.95;;
56943;SDS011;42848;42.524;12.052;2024-01-27T11:40:29;7.93;;;5.38;;
56943;SDS011;42848;42.524;12.052;2024-01-27T11:42:55;11.50;;;6.78;;
56943;SDS011;42848;42.524;12.052;2024-01-27T11:45:25;10.85;;;7.20;;
56943;SDS011;42848;42.524;12.052;2024-01-27T11:47:54;10.48;;;5.47;;
56943;SDS011;42848;42.524;12.052;2024-01-27T11:50:21;9.15;;;5.20;;
56943;SDS011;42848;42.524;12.052;2024-01-27T11:52:48;10.00;;;6.38;;
56943;SDS011;42848;42.524;12.052;2024-01-27T11:55:14;7.32;;;5.00;;
56943;SDS011;42848;42.524;12.052;2024-01-27T11:57:41;8.18;;;5.05;;
56943;SDS011;42848;42.524;12.052;2024-01-27T12:00:07;7.35;;;4.70;;
56943;SDS011;42848;42.524;12.052;2024-01-27T12:02:39;7.03;;;4.75;;
56943;SDS011;42848;42.524;12.052;2024-01-27T12:05:06;7.90;;;4.18;;
56943;SDS011;42848;42.524;12.052;2024-01-27T12:07:33;9.38;;;5.20;;
56943;SDS011;42848;42.524;12.052;2024-01-27T12:09:59;11.18;;;6.30;;
56943;SDS011;42848;42.524;12.052;2024-01-27T12:12:24;11.48;;;7.57;;
56943;SDS011;42848;42.524;12.052;2024-01-27T12:14:50;10.00;;;6.10;;
56943;SDS011;42848;42.524;12.052;2024-01-27T12:17:17;11.18;;;7.38;;
56943;SDS011;42848;42.524;12.052;2024-01-27T12:19:50;11.80;;;7.20;;
56943;SDS011;42848;42.524;12.052;2024-01-27T12:22:20;9.98;;;6.68;;
56943;SDS011;42848;42.524;12.052;2024-01-27T12:24:47;9.35;;;5.70;;
56943;SDS011;42848;42.524;12.052;2024-01-27T12:27:12;9.00;;;5.60;;
56943;SDS011;42848;42.524;12.052;2024-01-27T12:29:40;8.07;;;5.07;;
56943;SDS011;42848;42.524;12.052;2024-01-27T12:32:06;7.80;;;5.10;;
56943;SDS011;42848;42.524;12.052;2024-01-27T12:34:32;9.15;;;5.75;;
56943;SDS011;42848;42.524;12.052;2024-01-27T12:36:58;9.95;;;6.15;;
56943;SDS011;42848;42.524;12.052;2024-01-27T12:39:23;8.38;;;5.90;;
56943;SDS011;42848;42.524;12.052;2024-01-27T12:41:50;9.43;;;5.50;;
56943;SDS011;42848;42.524;12.052;2024-01-27T12:44:16;8.02;;;5.35;;
56943;SDS011;42848;42.524;12.052;2024-01-27T12:46:42;11.27;;;7.30;;
56943;SDS011;42848;42.524;12.052;2024-01-27T12:49:07;9.38;;;6.32;;
56943;SDS011;42848;42.524;12.052;2024-01-27T12:51:33;8.18;;;5.40;;
56943;SDS011;42848;42.524;12.052;2024-01-27T12:53:59;7.28;;;4.60;;
56943;SDS011;42848;42.524;12.052;2024-01-27T12:56:25;7.88;;;4.80;;
56943;SDS011;42848;42.524;12.052;2024-01-27T12:58:51;7.20;;;5.20;;
56943;SDS011;42848;42.524;12.052;2024-01-27T13:01:17;8.48;;;5.13;;
56943;SDS011;42848;42.524;12.052;2024-01-27T13:03:42;7.80;;;5.10;;
56943;SDS011;42848;42.524;12.052;2024-01-27T13:06:08;7.88;;;5.07;;
56943;SDS011;42848;42.524;12.052;2024-01-27T13:08:34;8.10;;;4.93;;
56943;SDS011;42848;42.524;12.052;2024-01-27T13:10:59;10.50;;;6.63;;
56943;SDS011;42848;42.524;12.052;2024-01-27T13:13:25;9.90;;;6.20;;
56943;SDS011;42848;42.524;12.052;2024-01-27T13:15:50;8.93;;;5.60;;
56943;SDS011;42848;42.524;12.052;2024-01-27T13:18:16;6.95;;;4.75;;
56943;SDS011;42848;42.524;12.052;2024-01-27T13:20:42;8.55;;;5.60;;
56943;SDS011;42848;42.524;12.052;2024-01-27T13:23:07;8.55;;;4.95;;
56943;SDS011;42848;42.524;12.052;2024-01-27T13:25:33;10.85;;;6.88;;
56943;SDS011;42848;42.524;12.052;2024-01-27T13:27:59;9.02;;;5.97;;
56943;SDS011;42848;42.524;12.052;2024-01-27T13:30:24;7.50;;;5.50;;
56943;SDS011;42848;42.524;12.052;2024-01-27T13:32:50;6.97;;;4.82;;
56943;SDS011;42848;42.524;12.052;2024-01-27T13:35:16;8.73;;;5.40;;
56943;SDS011;42848;42.524;12.052;2024-01-27T13:37:41;11.75;;;7.43;;
56943;SDS011;42848;42.524;12.052;2024-01-27T13:40:07;8.90;;;5.90;;
56943;SDS011;42848;42.524;12.052;2024-01-27T13:42:35;9.68;;;6.43;;
56943;SDS011;42848;42.524;12.052;2024-01-27T13:45:02;11.13;;;6.22;;
56943;SDS011;42848;42.524;12.052;2024-01-27T13:47:29;10.45;;;6.82;;
56943;SDS011;42848;42.524;12.052;2024-01-27T13:49:55;10.57;;;6.43;;
56943;SDS011;42848;42.524;12.052;2024-01-27T13:52:21;9.15;;;6.00;;
56943;SDS011;42848;42.524;12.052;2024-01-27T13:54:46;8.55;;;5.38;;
56943;SDS011;42848;42.524;12.052;2024-01-27T13:57:12;8.38;;;5.40;;
56943;SDS011;42848;42.524;12.052;2024-01-27T13:59:40;9.35;;;5.95;;
56943;SDS011;42848;42.524;12.052;2024-01-27T14:02:05;10.63;;;7.28;;
56943;SDS011;42848;42.524;12.052;2024-01-27T14:04:31;9.40;;;6.13;;
56943;SDS011;42848;42.524;12.052;2024-01-27T14:06:57;12.93;;;8.32;;
56943;SDS011;42848;42.524;12.052;2024-01-27T14:09:23;10.10;;;5.22;;
56943;SDS011;42848;42.524;12.052;2024-01-27T14:11:49;8.57;;;5.22;;
56943;SDS011;42848;42.524;12.052;2024-01-27T14:14:15;7.25;;;5.30;;
56943;SDS011;42848;42.524;12.052;2024-01-27T14:16:46;7.28;;;4.97;;
56943;SDS011;42848;42.524;12.052;2024-01-27T14:19:12;8.35;;;5.47;;
56943;SDS011;42848;42.524;12.052;2024-01-27T14:21:38;11.02;;;7.45;;
56943;SDS011;42848;42.524;12.052;2024-01-27T14:24:04;8.05;;;6.10;;
56943;SDS011;42848;42.524;12.052;2024-01-27T14:26:32;7.40;;;4.88;;
56943;SDS011;42848;42.524;12.052;2024-01-27T14:28:58;7.90;;;5.07;;